Alamosa, Colorado
Current Conditions -  °F | °C
As of 6:52 PM on Sunday 21 Dec 2014 (Local Time) from KALS Reporting Station
Overcast Overcast  
Wind Chill: 26°   Ceiling: 7000
Heat Index: 32°   Visibility: 10mi
Dew Point: 25°   Wind: 7mph
Humidity: 75%   Direction: 110°ESE
Pressure: 29.79"   Gusts: NA
Location:  37.47°N, 105.87°W
Report Text: KALS 220152Z AUTO 11006KT 10SM SCT055 OVC070 00/M04 A2979 RMK AO2 SLP122 T00001039
Loading
Personal Weather Stations






























Interactive Weather Map New forecast layout! Learn more

10-Day Weather Forecast

Advertisements
Track Severe Weather on mobile